createdAt,value
2022-12-08T12:48:28.711Z,5.05
2022-12-08T12:49:43.906Z,5.17
2022-12-08T12:50:47.312Z,5.20
2022-12-08T12:51:45.576Z,5.20
2022-12-08T12:52:20.084Z,5.19
2022-12-08T12:52:53.214Z,5.25
2022-12-08T12:53:25.064Z,5.22
2022-12-08T12:54:21.873Z,5.16
2022-12-08T12:54:54.420Z,5.18
2022-12-08T12:55:43.993Z,5.14
2022-12-08T12:56:53.208Z,5.13
2022-12-08T12:57:36.789Z,5.21
2022-12-08T12:58:34.448Z,5.12
2022-12-08T12:59:36.506Z,5.15
2022-12-08T13:00:17.647Z,5.10
2022-12-08T13:00:49.786Z,5.03
2022-12-08T13:01:21.749Z,5.09
2022-12-08T13:01:57.314Z,5.05
2022-12-08T13:02:48.852Z,5.13
2022-12-08T13:03:20.804Z,5.11
2022-12-08T13:04:09.569Z,5.12
2022-12-08T13:04:59.425Z,5.15
2022-12-08T13:05:35.739Z,5.16
2022-12-08T13:06:14.635Z,5.07
2022-12-08T13:06:50.997Z,5.10
2022-12-08T13:07:28.131Z,5.15
2022-12-08T13:08:08.234Z,5.17
2022-12-08T13:08:50.329Z,5.13
2022-12-08T13:09:39.313Z,5.13
2022-12-08T13:10:28.164Z,5.09
2022-12-08T13:11:02.183Z,5.06
2022-12-08T13:11:57.195Z,5.05
2022-12-08T13:12:29.516Z,4.81
2022-12-08T13:13:10.591Z,4.99
2022-12-08T13:14:05.171Z,4.85
2022-12-08T13:14:46.660Z,4.85
2022-12-08T13:15:20.538Z,4.81
2022-12-08T13:16:18.503Z,4.79
2022-12-08T13:16:55.285Z,4.91
2022-12-08T13:17:34.449Z,4.98
2022-12-08T13:18:18.077Z,4.99
2022-12-08T13:18:58.457Z,4.96
2022-12-08T13:19:32.721Z,4.97
2022-12-08T13:20:07.861Z,5.00
2022-12-08T13:20:50.409Z,4.97
2022-12-08T13:21:25.297Z,4.95
2022-12-08T13:21:57.318Z,4.95
2022-12-08T13:22:53.441Z,4.97
2022-12-08T13:24:00.681Z,4.97
2022-12-08T13:24:35.114Z,4.93
2022-12-08T13:25:40.836Z,4.88
2022-12-08T13:26:19.455Z,4.81
2022-12-08T13:27:06.507Z,4.87
2022-12-08T13:27:53.637Z,4.86
2022-12-08T13:28:31.186Z,4.88
2022-12-08T13:29:05.909Z,4.85
2022-12-08T13:29:39.076Z,4.89
2022-12-08T13:30:42.556Z,4.96
2022-12-08T13:31:50.194Z,4.79
2022-12-08T13:32:29.340Z,4.62
2022-12-08T13:33:19.565Z,4.72
2022-12-08T13:33:51.678Z,4.82
2022-12-08T13:34:46.432Z,4.91
2022-12-08T13:35:18.395Z,4.89
2022-12-08T13:36:18.555Z,4.84
2022-12-08T13:37:11.482Z,4.89
2022-12-08T13:37:54.744Z,4.94
2022-12-08T13:38:31.840Z,4.85
2022-12-08T13:39:06.098Z,4.82
2022-12-08T13:39:40.720Z,4.86
2022-12-08T13:40:23.139Z,4.78
2022-12-08T13:40:57.189Z,4.83
2022-12-08T13:41:38.443Z,4.87
2022-12-08T13:42:13.111Z,4.75
2022-12-08T13:42:56.556Z,4.80
2022-12-08T13:44:02.226Z,4.49
2022-12-08T13:46:52.899Z,4.67
2022-12-08T13:48:20.359Z,4.76
2022-12-08T13:53:49.364Z,4.61
2022-12-08T13:57:03.914Z,4.81
2022-12-08T13:57:37.586Z,4.82
2022-12-08T13:58:39.990Z,4.81
2022-12-08T13:59:20.654Z,4.78
2022-12-08T13:59:52.579Z,4.75
2022-12-08T14:00:27.508Z,4.79
2022-12-08T14:01:20.408Z,4.78
2022-12-08T14:01:52.691Z,4.79
2022-12-08T14:02:35.029Z,4.89
2022-12-08T14:03:13.180Z,4.80
2022-12-08T14:06:11.136Z,4.78
2022-12-08T14:06:42.461Z,4.87
2022-12-08T14:07:14.819Z,4.82
2022-12-08T14:07:50.118Z,4.88
2022-12-08T14:08:58.346Z,4.85
2022-12-08T14:09:29.326Z,4.87
2022-12-08T14:10:04.140Z,4.85
2022-12-08T14:10:36.264Z,4.89
2022-12-08T14:11:08.243Z,4.90
2022-12-08T14:11:50.063Z,4.92
2022-12-08T14:12:27.887Z,4.95
2022-12-08T14:13:04.700Z,4.82
2022-12-08T14:13:36.661Z,4.88
2022-12-08T14:15:02.021Z,4.94
2022-12-08T14:15:38.555Z,4.78
2022-12-08T14:16:29.588Z,4.72
2022-12-08T14:17:06.972Z,4.47
2022-12-08T14:17:40.224Z,4.48
2022-12-08T14:18:31.724Z,4.54
2022-12-08T14:19:32.213Z,4.47
2022-12-08T14:20:31.767Z,4.44
2022-12-08T14:21:20.663Z,4.55
2022-12-08T14:21:59.664Z,4.60
2022-12-08T14:22:40.440Z,4.67
2022-12-08T14:23:17.691Z,4.69
2022-12-08T14:23:49.769Z,4.71
2022-12-08T14:24:26.837Z,4.73
2022-12-08T14:24:58.980Z,4.76
2022-12-08T14:25:31.019Z,4.80
2022-12-08T14:26:06.193Z,4.85
2022-12-08T14:26:38.889Z,4.89
2022-12-08T14:27:18.059Z,4.92
2022-12-08T14:27:50.585Z,4.94
2022-12-08T14:28:23.317Z,4.92
2022-12-08T14:28:55.300Z,4.97
2022-12-08T14:29:55.694Z,5.01
2022-12-08T14:30:34.788Z,5.07
2022-12-08T14:31:07.001Z,5.05
2022-12-08T14:31:39.161Z,5.14
2022-12-08T14:32:33.743Z,5.16
2022-12-08T14:33:06.124Z,5.13
2022-12-08T14:33:38.004Z,5.06
2022-12-08T14:34:11.991Z,5.02
2022-12-08T14:34:43.941Z,4.95
2022-12-08T14:35:30.534Z,4.95
2022-12-08T14:36:02.576Z,4.80
2022-12-08T14:36:36.375Z,4.72
2022-12-08T14:37:13.361Z,4.81
2022-12-08T14:37:48.652Z,4.84
2022-12-08T14:38:22.587Z,4.84
2022-12-08T14:38:56.846Z,4.82
2022-12-08T14:39:28.807Z,4.78
2022-12-08T14:40:09.919Z,4.83
2022-12-08T14:40:45.257Z,4.86
2022-12-08T14:41:25.756Z,4.87
2022-12-08T14:42:01.154Z,4.84
2022-12-08T14:42:45.683Z,4.85
2022-12-08T14:43:19.404Z,4.83
2022-12-08T14:44:01.155Z,4.80
2022-12-08T14:44:39.029Z,4.77
2022-12-08T14:45:14.978Z,4.79
2022-12-08T14:45:53.421Z,4.83
2022-12-08T14:46:25.604Z,4.78
2022-12-08T14:47:09.475Z,4.84
2022-12-08T14:47:42.111Z,4.82
2022-12-08T14:48:33.674Z,4.84
2022-12-08T14:49:05.663Z,4.82
2022-12-08T14:49:39.646Z,4.88
2022-12-08T14:50:41.911Z,4.93
2022-12-08T14:51:19.366Z,5.01
2022-12-08T14:51:51.276Z,5.00
2022-12-08T14:52:23.567Z,5.00
2022-12-08T14:52:55.506Z,4.98
2022-12-08T14:53:44.654Z,4.90
2022-12-08T14:54:19.128Z,4.90
2022-12-08T14:54:52.912Z,4.93
2022-12-08T14:55:36.724Z,5.00
2022-12-08T14:56:46.536Z,4.98
2022-12-08T14:57:18.630Z,4.92
2022-12-08T14:57:50.560Z,4.92
2022-12-08T14:58:31.579Z,4.83
2022-12-08T14:59:23.112Z,4.80
2022-12-08T14:59:55.141Z,4.80
2022-12-08T15:00:28.102Z,4.79
2022-12-08T15:01:00.988Z,4.74
2022-12-08T15:01:33.704Z,4.76
2022-12-08T15:02:24.276Z,4.77
2022-12-08T15:02:57.128Z,4.73
2022-12-08T15:03:31.537Z,4.74
2022-12-08T15:04:13.058Z,4.75
2022-12-08T15:04:48.768Z,4.77
2022-12-08T15:05:22.425Z,4.76
2022-12-08T15:05:59.991Z,4.76
2022-12-08T15:06:31.934Z,4.73
2022-12-08T15:07:21.932Z,4.76
2022-12-08T15:08:00.496Z,4.72
2022-12-08T15:08:33.897Z,4.69
2022-12-08T15:09:39.516Z,4.72
2022-12-08T15:10:17.093Z,4.71
2022-12-08T15:11:21.415Z,4.70
2022-12-08T15:12:13.267Z,4.72
2022-12-08T15:13:22.114Z,4.57
2022-12-08T15:13:54.635Z,4.63
2022-12-08T15:14:37.049Z,4.60
2022-12-08T15:15:08.855Z,4.51
2022-12-08T15:15:56.455Z,4.50
2022-12-08T15:16:36.823Z,4.55
2022-12-08T15:17:41.365Z,4.50
2022-12-08T15:18:19.035Z,4.46
2022-12-08T15:19:28.383Z,4.52
2022-12-08T15:20:02.817Z,4.44
2022-12-08T15:20:51.688Z,4.41
2022-12-08T15:21:31.128Z,4.46
2022-12-08T15:22:22.802Z,4.42
2022-12-08T15:22:55.973Z,4.44
2022-12-08T15:23:38.440Z,4.47
2022-12-08T15:24:15.027Z,4.37
2022-12-08T15:24:47.054Z,4.32
2022-12-08T15:25:19.112Z,4.36
2022-12-08T15:25:51.404Z,4.31
2022-12-08T15:26:27.090Z,4.40
2022-12-08T15:26:59.000Z,4.43
2022-12-08T15:27:34.951Z,4.33
2022-12-08T15:28:14.508Z,4.22
2022-12-08T15:28:46.493Z,4.07
2022-12-08T15:29:26.370Z,4.19
2022-12-08T15:29:58.307Z,4.19
2022-12-08T15:30:31.331Z,4.22
2022-12-08T15:31:03.241Z,4.22
2022-12-08T15:31:35.268Z,4.15
2022-12-08T15:32:11.562Z,4.08
2022-12-08T15:32:44.195Z,4.17
2022-12-08T15:33:16.136Z,4.13
2022-12-08T15:33:48.513Z,4.24
2022-12-08T15:34:21.189Z,4.27
2022-12-08T15:34:53.055Z,4.22
2022-12-08T15:35:25.134Z,4.25
2022-12-08T15:35:57.057Z,4.19
2022-12-08T15:36:28.959Z,4.20
2022-12-08T15:37:00.990Z,4.17
2022-12-08T15:37:32.925Z,4.20
2022-12-08T15:38:06.645Z,4.21
2022-12-08T15:38:38.905Z,4.18
2022-12-08T15:39:20.838Z,4.21
2022-12-08T15:39:53.108Z,4.11
2022-12-08T15:40:27.228Z,4.18
2022-12-08T15:41:00.501Z,4.19
2022-12-08T15:41:32.732Z,4.27
2022-12-08T15:42:12.556Z,4.22
2022-12-08T15:42:44.837Z,4.33
2022-12-08T15:43:16.787Z,4.30
2022-12-08T15:43:48.818Z,4.32
2022-12-08T15:44:20.696Z,4.37
2022-12-08T15:44:52.670Z,4.32
2022-12-08T15:45:31.488Z,4.35
2022-12-08T15:46:05.280Z,4.39
2022-12-08T15:46:37.250Z,4.46
2022-12-08T15:47:21.881Z,4.49
2022-12-08T15:47:53.802Z,4.40
2022-12-08T15:48:29.499Z,4.48
2022-12-08T15:49:02.287Z,4.46
2022-12-08T15:49:34.144Z,4.41
2022-12-08T15:50:07.661Z,4.43
2022-12-08T15:50:39.926Z,4.44
2022-12-08T15:51:11.957Z,4.49
2022-12-08T15:51:43.936Z,4.50
2022-12-08T15:52:22.584Z,4.47
2022-12-08T15:52:54.514Z,4.51
2022-12-08T15:53:26.498Z,4.54
2022-12-08T15:53:58.387Z,4.55
2022-12-08T15:54:30.299Z,4.47
2022-12-08T15:55:02.243Z,4.52
2022-12-08T15:55:38.683Z,4.52
2022-12-08T15:56:29.363Z,4.46
2022-12-08T15:58:55.222Z,4.50
2022-12-08T15:59:27.831Z,4.54
2022-12-08T16:00:00.026Z,4.56
2022-12-08T16:00:53.560Z,4.56
2022-12-08T16:01:26.955Z,4.63
2022-12-08T16:01:59.402Z,4.62
2022-12-08T16:02:56.325Z,4.59
2022-12-08T16:05:25.263Z,4.54
2022-12-08T16:07:20.695Z,4.55
2022-12-08T16:07:57.588Z,4.60
2022-12-08T16:08:47.489Z,4.53
2022-12-08T16:09:34.094Z,4.56
2022-12-08T16:10:08.558Z,4.53
2022-12-08T16:11:24.243Z,4.50
2022-12-08T16:12:09.807Z,4.53
2022-12-08T16:13:58.341Z,4.49
2022-12-08T16:16:27.045Z,4.51
2022-12-08T16:16:59.230Z,4.52
2022-12-08T16:17:32.268Z,4.54
2022-12-08T16:18:05.165Z,4.55
2022-12-08T16:18:40.158Z,4.59
2022-12-08T16:19:14.620Z,4.58
2022-12-08T16:19:46.625Z,4.60
2022-12-08T16:20:18.535Z,4.62
2022-12-08T16:21:13.310Z,4.61
2022-12-08T16:23:42.381Z,4.81
2022-12-08T16:24:15.893Z,4.72
2022-12-08T16:24:47.826Z,4.67
2022-12-08T16:25:22.320Z,4.67
2022-12-08T16:26:20.150Z,4.69
2022-12-08T16:27:58.950Z,4.67
2022-12-08T16:28:53.502Z,4.64
2022-12-08T16:29:24.235Z,4.67
2022-12-08T16:29:58.982Z,4.70
2022-12-08T16:30:30.953Z,4.71
2022-12-08T16:31:02.954Z,4.68
2022-12-08T16:31:35.154Z,4.74
2022-12-08T16:32:07.271Z,4.76
2022-12-08T16:32:39.245Z,4.73
2022-12-08T16:33:12.505Z,4.79
2022-12-08T16:33:44.449Z,4.90
2022-12-08T16:34:16.471Z,4.81
2022-12-08T16:34:49.517Z,4.81
2022-12-08T16:35:21.480Z,4.77
2022-12-08T16:35:53.370Z,4.74
2022-12-08T16:36:25.328Z,4.71
2022-12-08T16:36:57.216Z,4.69
2022-12-08T16:37:29.557Z,4.65
2022-12-08T16:38:01.643Z,4.69
2022-12-08T16:38:35.578Z,4.70
2022-12-08T16:39:07.945Z,4.63
2022-12-08T16:39:45.453Z,4.61
2022-12-08T16:40:17.844Z,4.65
2022-12-08T16:41:08.387Z,4.65
2022-12-08T16:42:15.579Z,4.65
2022-12-08T16:42:49.914Z,4.72
2022-12-08T16:43:22.076Z,4.73
2022-12-08T16:43:54.013Z,4.71
2022-12-08T16:44:26.629Z,4.67
2022-12-08T16:44:59.001Z,4.64
2022-12-08T16:45:31.036Z,4.64
2022-12-08T16:46:03.352Z,4.69
2022-12-08T16:46:36.073Z,4.76
2022-12-08T16:47:11.322Z,4.80
2022-12-08T16:47:50.645Z,4.87
2022-12-08T16:48:22.909Z,4.87
2022-12-08T16:48:57.022Z,4.83
2022-12-08T16:49:28.913Z,4.89
2022-12-08T16:50:00.984Z,4.90
2022-12-08T16:50:35.253Z,4.94
2022-12-08T16:51:10.322Z,4.91
2022-12-08T16:51:44.041Z,4.84
2022-12-08T16:52:17.803Z,4.88
2022-12-08T16:52:51.075Z,4.87
2022-12-08T16:53:23.609Z,4.91
2022-12-08T16:53:57.124Z,4.91
2022-12-08T16:54:29.829Z,4.89
2022-12-08T16:55:01.972Z,4.92
2022-12-08T16:55:35.494Z,4.93
2022-12-08T16:56:07.676Z,4.92
2022-12-08T16:56:39.613Z,4.94
2022-12-08T16:57:12.414Z,4.93
2022-12-08T16:57:45.935Z,4.92
2022-12-08T16:58:21.016Z,4.88
2022-12-08T16:58:52.924Z,4.92
2022-12-08T16:59:25.566Z,4.94
2022-12-08T16:59:57.628Z,4.97
2022-12-08T17:00:37.223Z,5.01
2022-12-08T17:01:15.910Z,5.03
2022-12-08T17:01:47.832Z,4.99
2022-12-08T17:02:20.982Z,4.98
2022-12-08T17:02:53.960Z,4.94
2022-12-08T17:03:25.937Z,4.86
2022-12-08T17:04:49.929Z,4.89
2022-12-08T17:05:25.068Z,4.97
2022-12-08T17:05:57.103Z,5.01
2022-12-08T17:06:29.067Z,5.02
2022-12-08T17:07:01.025Z,5.02
2022-12-08T17:07:34.557Z,5.05
2022-12-08T17:08:06.683Z,5.06
2022-12-08T17:08:40.402Z,5.06
2022-12-08T17:09:12.405Z,5.03
2022-12-08T17:09:44.475Z,5.05
2022-12-08T17:10:21.046Z,5.00
2022-12-08T17:11:07.449Z,4.99
2022-12-08T17:11:43.274Z,5.00
2022-12-08T17:12:15.866Z,5.02
2022-12-08T17:12:47.798Z,5.03
2022-12-08T17:13:19.711Z,4.96
2022-12-08T17:13:51.689Z,4.97
2022-12-08T17:14:23.638Z,4.95
2022-12-08T17:14:55.661Z,4.92
2022-12-08T17:15:27.754Z,4.89
2022-12-08T17:15:59.955Z,4.87
2022-12-08T17:16:31.983Z,4.84
2022-12-08T17:17:04.602Z,4.84
2022-12-08T17:17:37.580Z,4.83
2022-12-08T17:18:09.503Z,4.85
2022-12-08T17:18:41.504Z,4.84
2022-12-08T17:19:15.298Z,4.85
2022-12-08T17:19:47.235Z,4.85
2022-12-08T17:20:23.888Z,4.90
2022-12-08T17:20:55.816Z,4.89
2022-12-08T17:21:27.747Z,4.89
2022-12-08T17:22:00.453Z,4.92
2022-12-08T17:22:34.125Z,4.90
2022-12-08T17:23:05.991Z,4.85
2022-12-08T17:23:39.991Z,4.84
2022-12-08T17:24:15.757Z,4.89
2022-12-08T17:24:49.221Z,4.88
2022-12-08T17:25:21.417Z,4.86
2022-12-08T17:26:01.059Z,4.87
2022-12-08T17:26:33.333Z,4.90
2022-12-08T17:27:06.402Z,4.95
2022-12-08T17:27:40.008Z,4.97
2022-12-08T17:28:11.889Z,5.01
2022-12-08T17:29:00.151Z,5.00
2022-12-08T17:29:34.324Z,5.02
2022-12-08T17:30:09.600Z,4.93
2022-12-08T17:30:41.467Z,4.96
2022-12-08T17:31:15.682Z,4.93
2022-12-08T17:31:47.662Z,4.87
2022-12-08T17:32:20.235Z,4.91
2022-12-08T17:32:52.962Z,4.92
2022-12-08T17:33:26.864Z,4.94
2022-12-08T17:34:05.240Z,4.95
2022-12-08T17:34:37.160Z,4.84
2022-12-08T17:35:10.421Z,4.74
2022-12-08T17:35:51.773Z,4.68
2022-12-08T17:36:23.746Z,4.70
2022-12-08T17:36:55.755Z,4.71
2022-12-08T17:37:27.635Z,4.71
2022-12-08T17:37:59.552Z,4.73
2022-12-08T17:38:31.508Z,4.77
2022-12-08T17:39:05.048Z,4.73
2022-12-08T17:39:38.559Z,4.71
2022-12-08T17:40:11.403Z,4.76
2022-12-08T17:40:44.249Z,4.76
2022-12-08T17:41:16.184Z,4.72
2022-12-08T17:41:48.271Z,4.74
2022-12-08T17:42:20.476Z,4.74
2022-12-08T17:42:52.365Z,4.70
2022-12-08T17:43:24.544Z,4.64
2022-12-08T17:43:57.008Z,4.61
2022-12-08T17:44:28.969Z,4.62
2022-12-08T17:45:00.931Z,4.60
2022-12-08T17:45:32.838Z,4.59
2022-12-08T17:46:05.683Z,4.55
2022-12-08T17:46:42.094Z,4.53
2022-12-08T17:47:15.418Z,4.55
2022-12-08T17:47:47.288Z,4.55
2022-12-08T17:48:19.217Z,4.57
2022-12-08T17:48:51.257Z,4.57
2022-12-08T17:49:26.052Z,4.63
2022-12-08T17:49:57.990Z,4.63
2022-12-08T17:50:29.892Z,4.66
2022-12-08T17:51:02.138Z,4.63
2022-12-08T17:51:34.052Z,4.63
2022-12-08T17:52:07.026Z,4.61
2022-12-08T17:52:38.976Z,4.56
2022-12-08T17:53:11.929Z,4.49
2022-12-08T17:53:43.932Z,4.46
2022-12-08T17:54:19.360Z,4.44
2022-12-08T17:54:51.297Z,4.41
2022-12-08T17:55:23.346Z,4.42
2022-12-08T17:55:58.079Z,4.50
2022-12-08T17:56:29.990Z,4.43
2022-12-08T17:57:02.067Z,4.44
2022-12-08T17:57:34.050Z,4.45
2022-12-08T17:58:06.897Z,4.43
2022-12-08T17:58:38.831Z,4.45
2022-12-08T17:59:12.415Z,4.46
2022-12-08T17:59:44.415Z,4.44
2022-12-08T18:00:16.600Z,4.41
2022-12-08T18:00:49.904Z,4.43
2022-12-08T18:01:23.326Z,4.37
2022-12-08T18:01:57.568Z,4.38
2022-12-08T18:02:31.058Z,4.44
2022-12-08T18:03:03.267Z,4.40
2022-12-08T18:03:35.546Z,4.40
2022-12-08T18:04:09.574Z,4.45
2022-12-08T18:04:41.467Z,4.46
2022-12-08T18:05:13.357Z,4.46
2022-12-08T18:05:45.516Z,4.47
2022-12-08T18:06:17.899Z,4.44
2022-12-08T18:06:49.933Z,4.42
2022-12-08T18:07:21.865Z,4.37
2022-12-08T18:07:53.977Z,4.26
2022-12-08T18:08:26.052Z,4.22
2022-12-08T18:08:59.639Z,4.22
2022-12-08T18:09:31.977Z,4.23
2022-12-08T18:10:04.936Z,4.23
2022-12-08T18:10:37.482Z,4.26
2022-12-08T18:11:19.738Z,4.27
2022-12-08T18:11:51.792Z,4.22
2022-12-08T18:12:24.141Z,4.09
2022-12-08T18:12:58.502Z,4.12
2022-12-08T18:13:30.792Z,4.08
2022-12-08T18:14:09.510Z,4.06
2022-12-08T18:14:41.401Z,4.08
2022-12-08T18:15:18.054Z,4.07
2022-12-08T18:15:50.054Z,4.12
2022-12-08T18:16:25.534Z,4.16
2022-12-08T18:16:57.520Z,4.17
2022-12-08T18:17:29.536Z,4.18
2022-12-08T18:18:01.496Z,4.16
2022-12-08T18:18:33.410Z,4.12
2022-12-08T18:19:06.028Z,4.11
2022-12-08T18:19:38.329Z,4.14
2022-12-08T18:20:10.914Z,4.12
2022-12-08T18:20:42.837Z,4.08
2022-12-08T18:21:21.430Z,4.01
2022-12-08T18:21:55.191Z,3.96
2022-12-08T18:22:27.165Z,3.94
2022-12-08T18:22:59.169Z,3.98
2022-12-08T18:23:31.181Z,4.01
2022-12-08T18:24:03.383Z,4.04
2022-12-08T18:24:35.409Z,4.05
2022-12-08T18:25:08.167Z,4.04
2022-12-08T18:25:40.125Z,4.02
2022-12-08T18:26:15.381Z,4.03
2022-12-08T18:26:48.185Z,3.99
2022-12-08T18:27:20.126Z,4.01
2022-12-08T18:27:52.038Z,4.03
2022-12-08T18:28:24.250Z,4.03
2022-12-08T18:28:56.667Z,4.02
2022-12-08T18:29:28.737Z,3.97
2022-12-08T18:30:02.109Z,4.00
2022-12-08T18:30:34.205Z,4.01
2022-12-08T18:31:17.726Z,3.97
2022-12-08T18:31:50.302Z,3.99
2022-12-08T18:32:23.760Z,3.94
2022-12-08T18:32:57.494Z,3.86
2022-12-08T18:33:29.662Z,3.82
2022-12-08T18:34:02.007Z,3.82
2022-12-08T18:34:35.031Z,3.82
2022-12-08T18:35:07.222Z,3.78
2022-12-08T18:35:40.292Z,3.77
2022-12-08T18:36:24.841Z,3.73
2022-12-08T18:36:56.851Z,3.77
2022-12-08T18:37:28.780Z,3.76
2022-12-08T18:38:00.820Z,3.75
2022-12-08T18:38:32.763Z,3.70
2022-12-08T18:39:10.439Z,3.72
2022-12-08T18:39:42.893Z,3.73
2022-12-08T18:40:15.323Z,3.75
2022-12-08T18:40:47.306Z,3.70
2022-12-08T18:41:24.629Z,3.72
2022-12-08T18:41:58.875Z,3.75
2022-12-08T18:42:30.865Z,3.58
2022-12-08T18:43:02.765Z,3.52
2022-12-08T18:43:35.002Z,3.50
2022-12-08T18:44:06.942Z,3.51
2022-12-08T18:44:38.826Z,3.46
2022-12-08T18:45:11.313Z,3.44
2022-12-08T18:45:43.366Z,3.43
2022-12-08T18:46:15.578Z,3.54
2022-12-08T18:46:47.874Z,3.56
2022-12-08T18:47:19.994Z,3.58
2022-12-08T18:47:52.344Z,3.61
2022-12-08T18:48:24.264Z,3.61
2022-12-08T18:48:56.294Z,3.54
2022-12-08T18:49:28.175Z,3.59
2022-12-08T18:50:00.350Z,3.60
2022-12-08T18:50:32.290Z,3.64
2022-12-08T18:51:05.859Z,3.60
2022-12-08T18:51:37.775Z,3.56
2022-12-08T18:52:09.723Z,3.60
2022-12-08T18:52:42.404Z,3.53
2022-12-08T18:53:14.401Z,3.53
2022-12-08T18:53:47.391Z,3.60
2022-12-08T18:54:22.140Z,3.58
2022-12-08T18:55:08.252Z,3.59
2022-12-08T18:55:40.241Z,3.59
2022-12-08T18:56:30.847Z,3.66
2022-12-08T18:57:02.772Z,3.67
2022-12-08T18:57:37.793Z,3.65
2022-12-08T18:58:10.983Z,3.70
2022-12-08T18:58:42.851Z,3.72
2022-12-08T18:59:14.861Z,3.75
2022-12-08T18:59:46.983Z,3.81
2022-12-08T19:00:19.655Z,3.83
2022-12-08T19:00:51.658Z,3.81
2022-12-08T19:01:24.115Z,3.83
2022-12-08T19:01:57.260Z,3.82
2022-12-08T19:02:29.285Z,3.79
2022-12-08T19:03:01.760Z,3.79
2022-12-08T19:03:33.736Z,3.79
2022-12-08T19:05:01.334Z,3.79
2022-12-08T19:05:33.240Z,3.76
2022-12-08T19:06:06.555Z,3.64
2022-12-08T19:06:40.542Z,3.69
2022-12-08T19:07:17.360Z,3.61
2022-12-08T19:07:49.352Z,3.66
2022-12-08T19:08:24.315Z,3.67
2022-12-08T19:08:58.740Z,3.64
2022-12-08T19:09:30.649Z,3.59
2022-12-08T19:10:02.909Z,3.53
2022-12-08T19:10:38.165Z,3.56
2022-12-08T19:11:28.058Z,3.59
2022-12-08T19:12:00.045Z,3.62
2022-12-08T19:12:32.175Z,3.58
2022-12-08T19:13:07.912Z,3.56
2022-12-08T19:13:39.817Z,3.56
2022-12-08T19:14:11.869Z,3.53
2022-12-08T19:14:43.806Z,3.56
2022-12-08T19:15:15.766Z,3.58
2022-12-08T19:15:47.994Z,3.50
2022-12-08T19:16:20.435Z,3.51
2022-12-08T19:16:52.498Z,3.52
2022-12-08T19:17:25.972Z,3.54
2022-12-08T19:17:58.415Z,3.55
2022-12-08T19:18:30.365Z,3.59
2022-12-08T19:19:04.312Z,3.56
2022-12-08T19:19:36.581Z,3.50
2022-12-08T19:20:09.819Z,3.55
2022-12-08T19:20:41.907Z,3.54
2022-12-08T19:21:14.298Z,3.56
2022-12-08T19:21:46.833Z,3.62
2022-12-08T19:22:18.832Z,3.65
2022-12-08T19:22:50.788Z,3.68
2022-12-08T19:23:22.765Z,3.68
2022-12-08T19:24:00.658Z,3.70
2022-12-08T19:24:34.838Z,3.71
2022-12-08T19:25:07.323Z,3.70
2022-12-08T19:25:39.855Z,3.61
2022-12-08T19:26:12.552Z,3.66
2022-12-08T19:26:44.845Z,3.70
2022-12-08T19:27:17.079Z,3.67
2022-12-08T19:27:49.006Z,3.72
2022-12-08T19:28:20.982Z,3.71
2022-12-08T19:28:53.099Z,3.70
2022-12-08T19:29:25.068Z,3.72
2022-12-08T19:29:57.005Z,3.72
2022-12-08T19:30:29.006Z,3.74
2022-12-08T19:31:07.977Z,3.74
2022-12-08T19:31:40.926Z,3.67
2022-12-08T19:32:12.988Z,3.72
2022-12-08T19:32:45.038Z,3.73
2022-12-08T19:33:17.089Z,3.73
2022-12-08T19:33:48.996Z,3.74
2022-12-08T19:34:21.273Z,3.77
2022-12-08T19:34:53.224Z,3.80
2022-12-08T19:35:25.136Z,3.84
2022-12-08T19:35:57.094Z,3.82
2022-12-08T19:36:35.437Z,3.78
2022-12-08T19:37:08.933Z,3.84
2022-12-08T19:37:41.112Z,3.84
2022-12-08T19:38:13.626Z,3.83
2022-12-08T19:39:04.379Z,3.87
2022-12-08T19:39:54.961Z,3.87
2022-12-08T19:40:45.558Z,3.82
2022-12-08T19:41:36.389Z,3.83
2022-12-08T19:42:36.658Z,3.85
2022-12-08T19:43:52.242Z,3.80
2022-12-08T19:44:34.474Z,3.79
2022-12-08T19:45:21.484Z,3.79
2022-12-08T19:45:53.757Z,3.78
2022-12-08T19:46:26.225Z,3.72
2022-12-08T19:46:58.720Z,3.77
2022-12-08T19:47:30.992Z,3.77
2022-12-08T19:48:03.222Z,3.75
2022-12-08T19:48:35.125Z,3.75
2022-12-08T19:49:07.086Z,3.77
2022-12-08T19:49:39.176Z,3.78
2022-12-08T19:50:32.920Z,3.74
2022-12-08T19:51:05.848Z,3.74
2022-12-08T19:51:37.711Z,3.72
2022-12-08T19:52:09.639Z,3.67
2022-12-08T19:52:41.780Z,3.62
2022-12-08T19:53:15.390Z,3.62
2022-12-08T19:53:47.963Z,3.61
2022-12-08T19:54:20.159Z,3.59
2022-12-08T19:54:52.123Z,3.57
2022-12-08T19:55:25.451Z,3.55
2022-12-08T19:55:57.428Z,3.56
2022-12-08T19:56:29.437Z,3.55
2022-12-08T19:57:01.720Z,3.60
2022-12-08T19:57:33.655Z,3.62
2022-12-08T19:58:07.281Z,3.61
2022-12-08T19:58:39.195Z,3.63
2022-12-08T19:59:11.371Z,3.60
2022-12-08T19:59:43.386Z,3.64
2022-12-08T20:00:17.019Z,3.68
2022-12-08T20:00:49.836Z,3.63
2022-12-08T20:01:21.780Z,3.68
2022-12-08T20:01:55.999Z,3.70
2022-12-08T20:02:28.477Z,3.75
2022-12-08T20:03:02.217Z,3.77
2022-12-08T20:03:34.299Z,3.78
2022-12-08T20:04:06.367Z,3.80
2022-12-08T20:04:38.389Z,3.78
2022-12-08T20:05:12.409Z,3.80
2022-12-08T20:05:45.736Z,3.76
2022-12-08T20:06:18.656Z,3.80
2022-12-08T20:06:53.306Z,3.76
2022-12-08T20:07:25.292Z,3.65
2022-12-08T20:07:57.646Z,3.68
2022-12-08T20:08:29.907Z,3.66
2022-12-08T20:09:01.886Z,3.66
2022-12-08T20:09:33.866Z,3.66
2022-12-08T20:10:09.805Z,3.63
2022-12-08T20:10:44.555Z,3.58
2022-12-08T20:11:16.441Z,3.56
2022-12-08T20:11:50.797Z,3.53
2022-12-08T20:12:22.996Z,3.49
2022-12-08T20:13:16.075Z,3.49
2022-12-08T20:13:48.506Z,3.45
2022-12-08T20:14:21.821Z,3.43
2022-12-08T20:14:53.719Z,3.36
2022-12-08T20:15:25.696Z,3.34
2022-12-08T20:15:57.926Z,3.31
2022-12-08T20:16:30.135Z,3.27
2022-12-08T20:17:02.201Z,3.23
2022-12-08T20:17:34.074Z,3.21
2022-12-08T20:18:06.518Z,3.19
2022-12-08T20:18:40.054Z,3.20
2022-12-08T20:19:12.071Z,3.15
2022-12-08T20:19:44.284Z,3.09
2022-12-08T20:20:16.247Z,3.09
2022-12-08T20:20:49.040Z,3.05
2022-12-08T20:21:22.043Z,3.03
2022-12-08T20:21:54.106Z,2.99
2022-12-08T20:22:26.145Z,2.98
2022-12-08T20:22:58.071Z,2.96
2022-12-08T20:23:30.508Z,2.90
2022-12-08T20:24:02.487Z,2.84
2022-12-08T20:24:35.558Z,2.90
2022-12-08T20:25:12.769Z,2.85
2022-12-08T20:25:47.536Z,2.84
2022-12-08T20:26:22.300Z,2.84
2022-12-08T20:26:54.266Z,2.78
2022-12-08T20:27:26.737Z,2.82
2022-12-08T20:27:58.859Z,2.82
2022-12-08T20:28:30.784Z,2.82
2022-12-08T20:29:02.902Z,2.84
2022-12-08T20:29:34.834Z,2.83
2022-12-08T20:30:11.834Z,2.89
2022-12-08T20:30:49.201Z,2.88
2022-12-08T20:31:28.864Z,2.92
2022-12-08T20:32:00.883Z,2.89
2022-12-08T20:32:33.169Z,2.89
2022-12-08T20:33:05.321Z,2.87
2022-12-08T20:33:37.220Z,2.89
2022-12-08T20:34:16.999Z,2.89
2022-12-08T20:34:49.058Z,2.79
2022-12-08T20:35:21.021Z,2.76
2022-12-08T20:36:06.165Z,2.73
2022-12-08T20:36:38.080Z,2.73
2022-12-08T20:37:10.165Z,2.73
2022-12-08T20:37:42.661Z,2.74
2022-12-08T20:38:14.670Z,2.76
2022-12-08T20:38:48.500Z,2.78
2022-12-08T20:39:20.463Z,2.74
2022-12-08T20:39:52.768Z,2.77
2022-12-08T20:40:25.027Z,2.82
2022-12-08T20:40:58.736Z,2.81
2022-12-08T20:41:34.836Z,2.79
2022-12-08T20:42:13.788Z,2.81
2022-12-08T20:42:45.804Z,2.82
2022-12-08T20:43:17.861Z,2.81
2022-12-08T20:43:50.683Z,2.80
2022-12-08T20:44:22.862Z,2.79
2022-12-08T20:44:55.413Z,2.84
2022-12-08T20:45:27.452Z,2.80
2022-12-08T20:45:59.389Z,2.69
2022-12-08T20:46:31.502Z,2.72
2022-12-08T20:47:03.567Z,2.70
2022-12-08T20:47:37.161Z,2.64
2022-12-08T20:48:09.322Z,2.70
2022-12-08T20:48:42.609Z,2.72
2022-12-08T20:49:14.621Z,2.71
2022-12-08T20:49:47.550Z,2.65
2022-12-08T20:50:19.564Z,2.59
2022-12-08T20:50:52.310Z,2.68
2022-12-08T20:51:30.029Z,2.66
2022-12-08T20:52:04.356Z,2.71
2022-12-08T20:52:38.043Z,2.66
2022-12-08T20:53:10.156Z,2.67
2022-12-08T20:53:42.132Z,2.65
2022-12-08T20:54:14.425Z,2.65
2022-12-08T20:54:46.455Z,2.55
2022-12-08T20:55:18.576Z,2.53
2022-12-08T20:55:50.640Z,2.53
2022-12-08T20:56:25.434Z,2.51
2022-12-08T20:56:57.329Z,2.50
2022-12-08T20:57:29.284Z,2.55
2022-12-08T20:58:02.007Z,2.57
2022-12-08T20:58:34.148Z,2.59
2022-12-08T20:59:06.381Z,2.54
2022-12-08T20:59:38.374Z,2.56
2022-12-08T21:00:11.856Z,2.57
2022-12-08T21:00:44.386Z,2.56
2022-12-08T21:01:20.076Z,2.55
2022-12-08T21:01:53.079Z,2.52
2022-12-08T21:02:25.245Z,2.53
2022-12-08T21:02:57.603Z,2.50
2022-12-08T21:03:29.832Z,2.51
2022-12-08T21:04:02.123Z,2.47
2022-12-08T21:04:34.324Z,2.42
2022-12-08T21:05:07.786Z,2.42
2022-12-08T21:05:40.377Z,2.40
2022-12-08T21:06:13.457Z,2.33
2022-12-08T21:06:45.484Z,2.37
2022-12-08T21:07:17.806Z,2.35
2022-12-08T21:07:49.800Z,2.40
2022-12-08T21:08:25.395Z,2.39
2022-12-08T21:08:57.620Z,2.42
2022-12-08T21:09:29.846Z,2.39
2022-12-08T21:10:04.008Z,2.38
2022-12-08T21:10:42.177Z,2.35
2022-12-08T21:11:15.947Z,2.35
2022-12-08T21:11:47.899Z,2.34
2022-12-08T21:12:19.907Z,2.19
2022-12-08T21:12:51.901Z,2.27
2022-12-08T21:13:24.474Z,2.28